createdAt,value
2023-04-04T00:00:43.656Z,96126.51
2023-04-04T00:03:17.105Z,96125.40
2023-04-04T00:05:45.637Z,96123.75
2023-04-04T00:08:13.637Z,96123.73
2023-04-04T00:10:42.221Z,96128.87
2023-04-04T00:13:10.422Z,96131.20
2023-04-04T00:15:38.363Z,96131.66
2023-04-04T00:18:06.720Z,96130.38
2023-04-04T00:20:34.712Z,96130.46
2023-04-04T00:23:02.692Z,96127.71
2023-04-04T00:25:30.867Z,96126.23
2023-04-04T00:28:01.096Z,96127.85
2023-04-04T00:30:32.757Z,96124.08
2023-04-04T00:33:02.225Z,96129.92
2023-04-04T00:35:30.341Z,96124.45
2023-04-04T00:37:58.409Z,96126.30
2023-04-04T00:40:26.875Z,96127.85
2023-04-04T00:42:55.043Z,96129.89
2023-04-04T00:45:23.254Z,96127.67
2023-04-04T00:47:51.763Z,96125.39
2023-04-04T00:50:20.086Z,96121.87
2023-04-04T00:52:48.200Z,96120.61
2023-04-04T00:55:17.770Z,96115.29
2023-04-04T00:57:45.933Z,96117.63
2023-04-04T01:00:14.733Z,96117.23
2023-04-04T01:02:42.949Z,96119.55
2023-04-04T01:05:12.827Z,96111.89
2023-04-04T01:07:42.990Z,96116.02
2023-04-04T01:10:12.549Z,96112.18
2023-04-04T01:12:41.635Z,96113.19
2023-04-04T01:15:10.383Z,96116.69
2023-04-04T01:17:38.686Z,96117.85
2023-04-04T01:20:08.879Z,96115.95
2023-04-04T01:22:42.727Z,96116.17
2023-04-04T01:25:10.913Z,96117.48
2023-04-04T01:27:41.569Z,96120.98
2023-04-04T01:30:14.630Z,96124.17
2023-04-04T01:32:55.067Z,96119.33
2023-04-04T01:35:31.512Z,96113.38
2023-04-04T01:38:19.292Z,96114.05
2023-04-04T01:40:52.369Z,96106.95
2023-04-04T01:43:21.163Z,96104.84
2023-04-04T01:45:49.792Z,96106.08
2023-04-04T01:48:18.398Z,96090.90
2023-04-04T01:50:50.818Z,96102.38
2023-04-04T01:53:19.190Z,96101.11
2023-04-04T01:55:47.221Z,96104.14
2023-04-04T01:58:17.169Z,96099.69
2023-04-04T02:00:45.244Z,96098.52
2023-04-04T02:03:13.306Z,96090.63
2023-04-04T02:05:41.387Z,96099.95
2023-04-04T02:08:10.685Z,96098.63
2023-04-04T02:10:43.667Z,96092.69
2023-04-04T02:13:12.358Z,96094.55
2023-04-04T02:15:40.679Z,96095.70
2023-04-04T02:18:09.517Z,96091.87
2023-04-04T02:20:38.108Z,96093.18
2023-04-04T02:23:06.387Z,96093.25
2023-04-04T02:25:34.353Z,96096.50
2023-04-04T02:28:02.429Z,96094.77
2023-04-04T02:30:30.455Z,96093.29
2023-04-04T02:33:00.143Z,96093.35
2023-04-04T02:35:28.491Z,96092.95
2023-04-04T02:37:57.070Z,96091.37
2023-04-04T02:40:27.793Z,96087.77
2023-04-04T02:42:56.085Z,96086.30
2023-04-04T02:45:24.150Z,96087.83
2023-04-04T02:48:04.068Z,96084.30
2023-04-04T02:50:39.925Z,96085.94
2023-04-04T02:53:09.251Z,96086.23
2023-04-04T02:55:37.410Z,96086.37
2023-04-04T02:58:05.703Z,96084.02
2023-04-04T03:00:33.797Z,96082.23
2023-04-04T03:03:02.987Z,96077.44
2023-04-04T03:05:34.024Z,96077.43
2023-04-04T03:08:02.303Z,96073.67
2023-04-04T03:10:30.734Z,96073.52
2023-04-04T03:12:59.159Z,96071.31
2023-04-04T03:15:28.556Z,96073.08
2023-04-04T03:17:57.063Z,96072.67
2023-04-04T03:20:27.371Z,96070.71
2023-04-04T03:22:55.440Z,96074.11
2023-04-04T03:25:23.614Z,96072.63
2023-04-04T03:27:52.012Z,96071.44
2023-04-04T03:30:23.256Z,96073.31
2023-04-04T03:32:51.544Z,96074.92
2023-04-04T03:35:20.091Z,96074.36
2023-04-04T03:37:48.080Z,96073.73
2023-04-04T03:40:16.138Z,96075.73
2023-04-04T03:42:44.428Z,96078.53
2023-04-04T03:45:13.414Z,96074.40
2023-04-04T03:47:42.589Z,96074.38
2023-04-04T03:50:12.554Z,96074.22
2023-04-04T03:52:47.671Z,96076.15
2023-04-04T03:55:15.938Z,96073.96
2023-04-04T03:57:43.906Z,96070.68
2023-04-04T04:00:14.140Z,96064.98
2023-04-04T04:02:42.372Z,96074.06
2023-04-04T04:05:11.092Z,96070.33
2023-04-04T04:07:38.967Z,96067.81
2023-04-04T04:10:07.745Z,96065.55
2023-04-04T04:12:35.706Z,96066.33
2023-04-04T04:15:04.302Z,96065.84
2023-04-04T04:17:33.234Z,96066.14
2023-04-04T04:20:01.554Z,96062.46
2023-04-04T04:22:37.230Z,96066.95
2023-04-04T04:25:05.897Z,96062.67
2023-04-04T04:27:34.582Z,96068.75
2023-04-04T04:30:02.799Z,96069.81
2023-04-04T04:32:35.183Z,96070.59
2023-04-04T04:35:03.868Z,96073.08
2023-04-04T04:37:34.581Z,96072.05
2023-04-04T04:40:03.711Z,96068.39
2023-04-04T04:42:46.781Z,96069.09
2023-04-04T04:45:17.929Z,96071.71
2023-04-04T04:47:50.021Z,96068.48
2023-04-04T04:50:19.080Z,96067.53
2023-04-04T04:52:52.791Z,96063.80
2023-04-04T04:55:20.976Z,96064.86
2023-04-04T04:57:58.362Z,96065.91
2023-04-04T05:00:27.955Z,96062.80
2023-04-04T05:02:57.041Z,96062.23
2023-04-04T05:05:34.874Z,96061.79
2023-04-04T05:08:05.687Z,96057.91
2023-04-04T05:10:35.515Z,96060.67
2023-04-04T05:13:04.190Z,96057.65
2023-04-04T05:15:36.055Z,96063.30
2023-04-04T05:18:04.088Z,96062.16
2023-04-04T05:20:32.611Z,96061.73
2023-04-04T05:23:01.488Z,96058.54
2023-04-04T05:25:35.212Z,96055.30
2023-04-04T05:28:04.191Z,96056.74
2023-04-04T05:30:33.007Z,96059.73
2023-04-04T05:33:17.234Z,96062.79
2023-04-04T05:35:51.111Z,96063.44
2023-04-04T05:38:19.522Z,96062.64
2023-04-04T05:40:49.122Z,96060.02
2023-04-04T05:43:18.020Z,96056.60
2023-04-04T05:45:53.491Z,96057.86
2023-04-04T05:48:21.939Z,96060.38
2023-04-04T05:50:52.386Z,96064.13
2023-04-04T05:53:25.128Z,96058.42
2023-04-04T05:55:53.538Z,96054.31
2023-04-04T05:58:22.360Z,96055.18
2023-04-04T06:00:54.389Z,96057.14
2023-04-04T06:03:22.508Z,96060.29
2023-04-04T06:05:54.279Z,96058.77
2023-04-04T06:08:22.896Z,96061.36
2023-04-04T06:10:51.344Z,96059.49
2023-04-04T06:13:19.260Z,96062.09
2023-04-04T06:15:52.485Z,96061.90
2023-04-04T06:18:22.663Z,96064.70
2023-04-04T06:20:50.942Z,96062.79
2023-04-04T06:23:19.327Z,96063.42
2023-04-04T06:25:49.541Z,96060.08
2023-04-04T06:28:20.451Z,96040.48
2023-04-04T06:30:49.585Z,96059.15
2023-04-04T06:33:27.376Z,96061.36
2023-04-04T06:35:56.277Z,96064.31
2023-04-04T06:38:25.066Z,96063.30
2023-04-04T06:40:53.843Z,96066.66
2023-04-04T06:43:22.016Z,96061.91
2023-04-04T06:45:50.092Z,96059.16
2023-04-04T06:48:21.432Z,96051.45
2023-04-04T06:50:49.372Z,96062.39
2023-04-04T06:53:18.595Z,96066.61
2023-04-04T06:55:46.491Z,96068.38
2023-04-04T06:58:14.612Z,96051.42
2023-04-04T07:00:42.887Z,96068.33
2023-04-04T07:03:11.271Z,96071.64
2023-04-04T07:05:42.863Z,96072.34
2023-04-04T07:08:11.784Z,96070.96
2023-04-04T07:10:40.702Z,96068.20
2023-04-04T07:13:10.237Z,96074.00
2023-04-04T07:15:38.221Z,96076.77
2023-04-04T07:18:06.335Z,96075.84
2023-04-04T07:20:34.493Z,96077.02
2023-04-04T07:23:02.746Z,96077.25
2023-04-04T07:25:31.321Z,96076.23
2023-04-04T07:28:09.662Z,96077.08
2023-04-04T07:30:40.453Z,96077.86
2023-04-04T07:33:08.902Z,96075.02
2023-04-04T07:35:37.979Z,96070.79
2023-04-04T07:38:06.010Z,96071.34
2023-04-04T07:40:34.091Z,96075.79
2023-04-04T07:43:02.470Z,96082.66
2023-04-04T07:45:30.468Z,96080.86
2023-04-04T07:47:59.448Z,96080.55
2023-04-04T07:50:28.021Z,96083.23
2023-04-04T07:52:56.232Z,96080.20
2023-04-04T07:55:29.174Z,96077.39
2023-04-04T07:57:58.800Z,96079.45
2023-04-04T08:00:26.952Z,96080.48
2023-04-04T08:02:56.406Z,96076.90
2023-04-04T08:05:24.943Z,96078.10
2023-04-04T08:07:53.031Z,96077.71
2023-04-04T08:10:22.129Z,96075.39
2023-04-04T08:12:50.124Z,96076.73
2023-04-04T08:15:18.142Z,96077.66
2023-04-04T08:17:46.074Z,96078.85
2023-04-04T08:20:14.496Z,96079.96
2023-04-04T08:22:42.663Z,96080.91
2023-04-04T08:25:11.487Z,96080.70
2023-04-04T08:27:40.552Z,96079.77
2023-04-04T08:30:09.487Z,96076.64
2023-04-04T08:32:37.732Z,96079.86
2023-04-04T08:35:06.165Z,96080.89
2023-04-04T08:37:35.993Z,96082.69
2023-04-04T08:40:04.866Z,96079.88
2023-04-04T08:42:33.595Z,96080.96
2023-04-04T08:45:02.573Z,96083.50
2023-04-04T08:47:31.825Z,96085.20
2023-04-04T08:50:00.237Z,96085.77
2023-04-04T08:52:28.844Z,96085.70
2023-04-04T08:54:56.921Z,96089.45
2023-04-04T08:57:24.890Z,96084.05
2023-04-04T08:59:53.848Z,96081.73
2023-04-04T09:03:10.010Z,96085.26
2023-04-04T09:05:37.855Z,96079.87
2023-04-04T09:08:07.672Z,96077.84
2023-04-04T09:10:38.036Z,96079.80
2023-04-04T09:13:15.629Z,96076.84
2023-04-04T09:15:49.622Z,96076.45
2023-04-04T09:18:18.313Z,96075.27
2023-04-04T09:20:49.734Z,96076.13
2023-04-04T09:23:21.383Z,96077.55
2023-04-04T09:28:25.735Z,96075.30
2023-04-04T09:30:53.903Z,96074.92
2023-04-04T09:33:22.157Z,96078.86
2023-04-04T09:36:05.246Z,96080.04
2023-04-04T09:38:33.372Z,96077.55
2023-04-04T09:41:01.643Z,96076.71
2023-04-04T09:43:31.190Z,96081.48
2023-04-04T09:46:00.608Z,96083.55
2023-04-04T09:48:32.454Z,96078.48
2023-04-04T09:51:00.777Z,96086.61
2023-04-04T09:53:28.878Z,96086.64
2023-04-04T09:55:57.463Z,96086.82
2023-04-04T09:58:29.828Z,96083.25
2023-04-04T10:01:00.164Z,96083.91
2023-04-04T10:03:28.840Z,96086.84
2023-04-04T10:06:07.007Z,96090.55
2023-04-04T10:08:36.287Z,96083.86
2023-04-04T10:13:37.182Z,96085.56
2023-04-04T10:16:05.625Z,96087.39
2023-04-04T10:18:34.760Z,96085.52
2023-04-04T10:21:15.371Z,96085.48
2023-04-04T10:23:47.343Z,96092.14
2023-04-04T10:26:15.454Z,96094.98
2023-04-04T10:28:44.099Z,96093.27
2023-04-04T10:31:25.892Z,96088.66
2023-04-04T10:34:06.080Z,96090.98
2023-04-04T10:36:46.163Z,96087.71
2023-04-04T10:39:29.906Z,96085.05
2023-04-04T10:41:58.799Z,96084.38
2023-04-04T10:44:34.467Z,96089.16
2023-04-04T10:47:19.819Z,96085.72
2023-04-04T10:49:48.813Z,96085.25
2023-04-04T10:52:18.686Z,96084.01
2023-04-04T10:54:48.481Z,96086.98
2023-04-04T10:57:16.513Z,96083.85
2023-04-04T11:00:08.156Z,96086.60
2023-04-04T11:03:02.298Z,96079.64
2023-04-04T11:05:37.686Z,96079.71
2023-04-04T11:08:09.437Z,96074.39
2023-04-04T11:10:38.471Z,96082.06
2023-04-04T11:13:16.747Z,96082.55
2023-04-04T11:15:48.090Z,96079.34
2023-04-04T11:18:30.661Z,96075.35
2023-04-04T11:21:05.703Z,96078.48
2023-04-04T11:23:53.970Z,96080.36
2023-04-04T11:26:28.126Z,96082.56
2023-04-04T11:29:04.009Z,96086.01
2023-04-04T11:31:47.501Z,96088.36
2023-04-04T11:34:16.659Z,96085.63
2023-04-04T11:36:45.796Z,96083.05
2023-04-04T11:39:31.007Z,96077.01
2023-04-04T11:42:14.541Z,96077.48
2023-04-04T11:45:03.537Z,96077.72
2023-04-04T11:47:31.998Z,96072.45
2023-04-04T11:50:00.893Z,96072.70
2023-04-04T11:52:40.639Z,96069.09
2023-04-04T11:55:19.673Z,96068.71
2023-04-04T11:57:48.130Z,96065.96
2023-04-04T12:00:32.201Z,96065.73
2023-04-04T12:03:00.522Z,96065.26
2023-04-04T12:05:28.934Z,96061.27
2023-04-04T12:07:57.754Z,96065.17
2023-04-04T12:10:26.028Z,96063.84
2023-04-04T12:12:57.068Z,96063.30
2023-04-04T12:15:27.607Z,96066.59
2023-04-04T12:17:55.612Z,96063.30
2023-04-04T12:20:24.575Z,96060.31
2023-04-04T12:22:52.923Z,96064.94
2023-04-04T12:25:23.277Z,96059.85
2023-04-04T12:27:51.737Z,96063.92
2023-04-04T12:30:19.921Z,96062.90
2023-04-04T12:32:48.618Z,96065.27
2023-04-04T12:35:17.291Z,96064.63
2023-04-04T12:37:58.475Z,96061.89
2023-04-04T12:40:30.230Z,96065.88
2023-04-04T12:43:00.160Z,96066.59
2023-04-04T12:45:28.626Z,96064.48
2023-04-04T12:47:58.130Z,96065.50
2023-04-04T12:50:28.238Z,96068.39
2023-04-04T12:53:13.392Z,96070.67
2023-04-04T12:55:48.061Z,96068.16
2023-04-04T12:58:17.451Z,96067.92
2023-04-04T13:00:45.851Z,96068.63
2023-04-04T13:03:14.825Z,96069.17
2023-04-04T13:05:44.438Z,96071.60
2023-04-04T13:08:12.498Z,96070.11
2023-04-04T13:11:04.806Z,96077.80
2023-04-04T13:13:40.914Z,96080.14
2023-04-04T13:16:10.144Z,96079.67
2023-04-04T13:18:43.541Z,96077.32
2023-04-04T13:21:12.571Z,96079.98
2023-04-04T13:23:41.497Z,96077.41
2023-04-04T13:26:10.295Z,96078.26
2023-04-04T13:28:38.972Z,96078.41
2023-04-04T13:31:08.465Z,96078.17
2023-04-04T13:33:36.939Z,96076.84
2023-04-04T13:36:05.684Z,96076.92
2023-04-04T13:38:34.438Z,96081.63
2023-04-04T13:41:02.602Z,96085.31
2023-04-04T13:43:30.994Z,96082.10
2023-04-04T13:45:59.106Z,96088.76
2023-04-04T13:48:27.849Z,96069.48
2023-04-04T13:50:56.117Z,96090.41
2023-04-04T13:53:24.186Z,96093.39
2023-04-04T13:56:16.142Z,96092.54
2023-04-04T13:58:41.081Z,96095.11
2023-04-04T14:01:09.656Z,96100.21
2023-04-04T14:03:37.746Z,96098.67
2023-04-04T14:06:10.475Z,96105.88
2023-04-04T14:08:40.280Z,96101.73
2023-04-04T14:11:08.494Z,96103.77
2023-04-04T14:13:37.033Z,96107.68
2023-04-04T14:16:06.752Z,96110.59
2023-04-04T14:18:35.221Z,96108.79
2023-04-04T14:21:03.897Z,96095.05
2023-04-04T14:23:31.969Z,96115.99
2023-04-04T14:25:59.976Z,96116.45
2023-04-04T14:28:28.734Z,96120.61
2023-04-04T14:30:56.996Z,96121.79
2023-04-04T14:33:25.053Z,96125.39
2023-04-04T14:35:53.151Z,96125.40
2023-04-04T14:38:21.535Z,96123.74
2023-04-04T14:40:49.702Z,96122.25
2023-04-04T14:43:17.877Z,96121.39
2023-04-04T14:45:46.331Z,96120.30
2023-04-04T14:48:14.329Z,96124.38
2023-04-04T14:50:43.068Z,96125.33
2023-04-04T14:53:11.197Z,96125.70
2023-04-04T14:55:39.334Z,96130.96
2023-04-04T14:58:08.480Z,96131.28
2023-04-04T15:00:36.852Z,96131.97
2023-04-04T15:03:07.287Z,96132.53
2023-04-04T15:05:35.745Z,96136.92
2023-04-04T15:08:03.920Z,96135.73
2023-04-04T15:10:31.989Z,96137.08
2023-04-04T15:13:00.291Z,96136.44
2023-04-04T15:15:29.334Z,96137.05
2023-04-04T15:17:57.564Z,96137.30
2023-04-04T15:20:25.921Z,96140.83
2023-04-04T15:22:54.710Z,96140.27
2023-04-04T15:25:22.887Z,96140.81
2023-04-04T15:27:50.860Z,96145.52
2023-04-04T15:30:18.832Z,96144.42
2023-04-04T15:32:46.800Z,96147.16
2023-04-04T15:35:19.471Z,96143.70
2023-04-04T15:37:49.122Z,96145.89
2023-04-04T15:40:17.629Z,96146.52
2023-04-04T15:42:46.037Z,96146.59
2023-04-04T15:45:14.721Z,96149.40
2023-04-04T15:47:42.848Z,96147.84
2023-04-04T15:50:11.997Z,96146.89
2023-04-04T15:52:40.166Z,96148.55
2023-04-04T15:55:13.159Z,96151.30
2023-04-04T15:57:44.739Z,96153.17
2023-04-04T16:00:14.051Z,96152.55
2023-04-04T16:02:42.178Z,96155.45
2023-04-04T16:05:10.673Z,96153.48
2023-04-04T16:07:38.708Z,96150.73
2023-04-04T16:10:07.429Z,96150.41
2023-04-04T16:12:35.487Z,96150.02
2023-04-04T16:15:05.384Z,96155.20
2023-04-04T16:17:33.536Z,96148.61
2023-04-04T16:20:01.792Z,96154.98
2023-04-04T16:22:29.827Z,96150.58
2023-04-04T16:24:57.889Z,96154.97
2023-04-04T16:27:25.864Z,96153.73
2023-04-04T16:29:53.841Z,96152.16
2023-04-04T16:32:21.728Z,96150.83
2023-04-04T16:34:49.876Z,96150.27
2023-04-04T16:37:17.947Z,96153.49
2023-04-04T16:39:49.716Z,96153.89
2023-04-04T16:42:19.536Z,96152.15
2023-04-04T16:44:48.132Z,96154.98
2023-04-04T16:47:16.040Z,96152.55
2023-04-04T16:49:44.355Z,96154.12
2023-04-04T16:52:12.596Z,96157.18
2023-04-04T16:54:42.750Z,96156.16
2023-04-04T16:57:11.031Z,96156.48
2023-04-04T16:59:39.024Z,96157.20
2023-04-04T17:02:10.149Z,96157.27
2023-04-04T17:04:41.990Z,96161.27
2023-04-04T17:07:10.575Z,96155.64
2023-04-04T17:09:38.748Z,96154.23
2023-04-04T17:12:06.844Z,96156.98
2023-04-04T17:14:35.834Z,96157.21
2023-04-04T17:17:05.612Z,96143.89
2023-04-04T17:19:35.128Z,96160.27
2023-04-04T17:22:03.690Z,96162.16
2023-04-04T17:24:32.140Z,96160.89
2023-04-04T17:27:01.520Z,96163.40
2023-04-04T17:29:29.908Z,96165.04
2023-04-04T17:31:58.095Z,96168.02
2023-04-04T17:34:26.332Z,96170.62
2023-04-04T17:36:54.355Z,96168.96
2023-04-04T17:39:22.786Z,96169.83
2023-04-04T17:41:54.559Z,96175.77
2023-04-04T17:44:23.136Z,96176.80
2023-04-04T17:46:51.296Z,96180.33
2023-04-04T17:49:22.235Z,96182.53
2023-04-04T17:51:55.171Z,96180.48
2023-04-04T17:54:23.321Z,96180.95
2023-04-04T17:56:52.094Z,96182.98
2023-04-04T17:59:24.531Z,96186.89
2023-04-04T18:01:53.774Z,96188.37
2023-04-04T18:04:22.558Z,96186.41
2023-04-04T18:06:52.399Z,96191.27
2023-04-04T18:09:23.526Z,96193.07
2023-04-04T18:11:52.275Z,96197.45
2023-04-04T18:14:20.364Z,96201.53
2023-04-04T18:16:48.341Z,96201.83
2023-04-04T18:19:17.751Z,96202.20
2023-04-04T18:21:53.007Z,96203.92
2023-04-04T18:24:21.360Z,96204.08
2023-04-04T18:26:52.197Z,96205.16
2023-04-04T18:29:20.261Z,96205.77
2023-04-04T18:31:48.355Z,96207.25
2023-04-04T18:34:16.927Z,96209.28
2023-04-04T18:36:46.283Z,96208.09
2023-04-04T18:39:17.466Z,96207.92
2023-04-04T18:41:46.571Z,96208.69
2023-04-04T18:44:15.025Z,96207.27
2023-04-04T18:46:43.284Z,96204.67
2023-04-04T18:49:11.902Z,96207.02
2023-04-04T18:51:39.877Z,96206.39
2023-04-04T18:54:08.050Z,96208.65
2023-04-04T18:56:37.817Z,96207.61
2023-04-04T18:59:07.418Z,96210.89
2023-04-04T19:01:36.214Z,96211.48
2023-04-04T19:04:04.566Z,96213.67
2023-04-04T19:06:32.981Z,96192.91
2023-04-04T19:09:03.955Z,96206.26
2023-04-04T19:11:32.135Z,96214.73
2023-04-04T19:14:00.333Z,96214.47
2023-04-04T19:16:28.321Z,96215.17
2023-04-04T19:18:56.342Z,96216.09
2023-04-04T19:21:24.321Z,96214.42
2023-04-04T19:23:53.207Z,96210.93
2023-04-04T19:26:21.697Z,96212.80
2023-04-04T19:28:50.779Z,96212.55
2023-04-04T19:31:23.133Z,96214.79
2023-04-04T19:33:55.045Z,96217.69
2023-04-04T19:36:23.616Z,96218.37
2023-04-04T19:38:54.397Z,96220.33
2023-04-04T19:41:43.098Z,96220.14
2023-04-04T19:44:20.887Z,96218.71
2023-04-04T19:46:49.260Z,96200.22
2023-04-04T19:49:18.059Z,96220.96
2023-04-04T19:51:49.820Z,96221.27
2023-04-04T19:54:20.058Z,96222.34
2023-04-04T19:56:48.603Z,96221.80
2023-04-04T19:59:53.360Z,96222.56
2023-04-04T20:02:27.142Z,96229.32
2023-04-04T20:04:55.428Z,96232.52
2023-04-04T20:07:24.409Z,96230.48
2023-04-04T20:09:52.611Z,96227.00
2023-04-04T20:12:23.126Z,96230.70
2023-04-04T20:14:51.722Z,96229.83
2023-04-04T20:17:19.682Z,96228.09
2023-04-04T20:19:48.468Z,96227.55
2023-04-04T20:22:17.157Z,96229.04
2023-04-04T20:24:47.252Z,96229.13
2023-04-04T20:27:33.584Z,96224.76
2023-04-04T20:30:01.692Z,96225.93
2023-04-04T20:32:29.740Z,96228.69
2023-04-04T20:34:57.901Z,96227.29
2023-04-04T20:37:29.349Z,96224.71
2023-04-04T20:40:02.779Z,96223.70
2023-04-04T20:42:32.354Z,96227.27
2023-04-04T20:45:09.652Z,96224.42
2023-04-04T20:47:44.835Z,96224.60
2023-04-04T20:50:22.290Z,96212.89
2023-04-04T20:52:56.801Z,96223.61
2023-04-04T20:55:29.678Z,96228.50
2023-04-04T20:58:06.665Z,96228.21
2023-04-04T21:00:39.831Z,96227.67
2023-04-04T21:03:23.598Z,96222.81
2023-04-04T21:05:52.479Z,96219.70
2023-04-04T21:08:20.499Z,96219.73
2023-04-04T21:10:50.793Z,96222.25
2023-04-04T21:13:21.346Z,96220.70
2023-04-04T21:15:49.299Z,96220.64
2023-04-04T21:18:22.734Z,96222.70
2023-04-04T21:20:51.558Z,96224.43
2023-04-04T21:23:26.031Z,96222.89
2023-04-04T21:25:58.922Z,96223.70
2023-04-04T21:28:37.291Z,96221.75
2023-04-04T21:31:14.363Z,96220.90
2023-04-04T21:33:46.432Z,96225.33
2023-04-04T21:36:29.148Z,96225.42
2023-04-04T21:39:13.270Z,96223.63
2023-04-04T21:41:43.111Z,96226.15
2023-04-04T21:44:11.276Z,96227.04
2023-04-04T21:46:40.257Z,96227.35
2023-04-04T21:49:08.987Z,96222.98
2023-04-04T21:51:37.364Z,96225.96
2023-04-04T21:54:05.597Z,96225.33
2023-04-04T21:56:33.711Z,96227.95
2023-04-04T21:59:04.140Z,96229.29
2023-04-04T22:01:32.528Z,96225.91
2023-04-04T22:04:00.789Z,96226.73
2023-04-04T22:06:29.170Z,96227.75
2023-04-04T22:08:57.958Z,96223.91
2023-04-04T22:11:27.340Z,96223.85
2023-04-04T22:14:04.526Z,96223.64
2023-04-04T22:16:37.230Z,96221.67
2023-04-04T22:19:05.374Z,96222.08
2023-04-04T22:21:36.870Z,96224.84
2023-04-04T22:24:06.430Z,96229.02
2023-04-04T22:26:34.813Z,96226.66
2023-04-04T22:29:03.706Z,96230.43
2023-04-04T22:31:34.479Z,96233.83
2023-04-04T22:34:03.698Z,96214.30
2023-04-04T22:36:32.024Z,96238.77
2023-04-04T22:39:00.203Z,96239.11
2023-04-04T22:41:29.429Z,96236.45
2023-04-04T22:43:57.877Z,96235.51
2023-04-04T22:46:29.365Z,96239.66
2023-04-04T22:49:07.272Z,96240.46
2023-04-04T22:51:45.448Z,96240.20
2023-04-04T22:54:17.288Z,96245.14
2023-04-04T22:56:46.126Z,96243.25
2023-04-04T22:59:14.465Z,96243.11
2023-04-04T23:01:42.751Z,96244.19
2023-04-04T23:04:11.484Z,96246.70
2023-04-04T23:06:39.728Z,96247.33
2023-04-04T23:09:08.493Z,96247.18
2023-04-04T23:11:37.971Z,96244.27
2023-04-04T23:14:09.986Z,96247.41
2023-04-04T23:16:38.354Z,96245.24
2023-04-04T23:19:06.795Z,96244.70
2023-04-04T23:21:36.919Z,96240.38
2023-04-04T23:24:06.256Z,96242.34
2023-04-04T23:26:34.323Z,96241.71
2023-04-04T23:29:03.246Z,96239.34
2023-04-04T23:31:31.628Z,96240.52
2023-04-04T23:34:00.190Z,96237.60
2023-04-04T23:36:28.522Z,96237.83
2023-04-04T23:38:56.822Z,96235.71
2023-04-04T23:41:24.906Z,96233.50
2023-04-04T23:43:53.658Z,96232.16
2023-04-04T23:46:22.518Z,96230.33
2023-04-04T23:48:50.956Z,96234.56
2023-04-04T23:51:19.040Z,96231.89
2023-04-04T23:53:47.230Z,96232.75
2023-04-04T23:56:15.145Z,96230.14
2023-04-04T23:58:43.146Z,96226.85
